WetterOnline ( http://www.wetteronline.de )

Wetter aktuell Augsburg

Aktuelles Wetter: Augsburg/Mühlhausen (477m)

6-stündlich | Neueste Meldungen
Ortszeit Temperatur Wetter
Sa, 23.06. 2:00 5.4° C wolkenlos
Fr, 22.06. 20:00 14.3° C wolkig
Fr, 22.06. 14:00 14.5° C bewölkt
Fr, 22.06. 8:00 10.9° C wolkenlos
Fr, 22.06. 2:00 12.3° C leicht bewölkt
Do, 21.06. 20:00 20.5° C wolkig
Do, 21.06. 14:00 26.8° C wolkig
Do, 21.06. 8:00 19.8° C wolkig
Ortszeit Temperatur Wetter
Sa, 23.06. 4:30 4.2° C leicht bewölkt
Sa, 23.06. 4:20 4° C -
Sa, 23.06. 4:10 4.2° C bedeckt
Sa, 23.06. 4:00 4.3° C leicht bewölkt
Sa, 23.06. 3:50 4.3° C leicht bewölkt
Sa, 23.06. 3:40 4.3° C bedeckt
Sa, 23.06. 3:30 4.3° C wolkenlos
Sa, 23.06. 3:00 4.1° C wolkenlos
Sa, 23.06. 2:30 4.9° C wolkenlos
Sa, 23.06. 2:00 5.4° C wolkenlos
Sa, 23.06. 1:30 5.9° C wolkenlos
Ortszeit Relative Feuchte Sichtweite
Sa, 23.06. 2:00 95% 28 km
Fr, 22.06. 20:00 48% 30 km
Fr, 22.06. 14:00 48% 21 km
Fr, 22.06. 8:00 66% 21 km
Fr, 22.06. 2:00 55% 55 km
Do, 21.06. 20:00 66% 30 km
Do, 21.06. 14:00 47% 14 km
Do, 21.06. 8:00 80% 13 km
Ortszeit Relative Feuchte Sichtweite
Sa, 23.06. 4:30 96% 20 km
Sa, 23.06. 4:20 100% >10 km
Sa, 23.06. 4:10 97% -
Sa, 23.06. 4:00 97% 20 km
Sa, 23.06. 3:50 97% -
Sa, 23.06. 3:40 97% -
Sa, 23.06. 3:30 96% 14 km
Sa, 23.06. 3:00 96% 20 km
Sa, 23.06. 2:30 93% 27 km
Sa, 23.06. 2:00 95% 28 km
Sa, 23.06. 1:30 93% 30 km
Ortszeit Niederschlagsmenge Niederschlagsart
Sa, 23.06. 2:00 0.0 l/m2 in 6 Std. -
Fr, 22.06. 20:00 0.0 l/m2 in 12 Std. -
Fr, 22.06. 14:00 0.0 l/m2 in 6 Std. -
Fr, 22.06. 8:00 0.0 l/m2 in 12 Std. -
Fr, 22.06. 2:00 0.0 l/m2 in 6 Std. -
Do, 21.06. 20:00 4 l/m2 in 12 Std. -
Do, 21.06. 14:00 4 l/m2 in 6 Std. Regenschauer
Do, 21.06. 8:00 0.0 l/m2 in 12 Std. -
Ortszeit Niederschlagsmenge Niederschlagsart
Sa, 23.06. 4:30 0.0 l/m2 in 1 Std. -
Sa, 23.06. 4:20 keine Meldung -
Sa, 23.06. 4:10 keine Meldung -
Sa, 23.06. 4:00 0.0 l/m2 in 1 Std. -
Sa, 23.06. 3:50 keine Meldung -
Sa, 23.06. 3:40 keine Meldung -
Sa, 23.06. 3:30 0.0 l/m2 in 1 Std. -
Sa, 23.06. 3:00 0.0 l/m2 in 1 Std. -
Sa, 23.06. 2:30 0.0 l/m2 in 1 Std. -
Sa, 23.06. 2:00 0.0 l/m2 in 1 Std. -
Sa, 23.06. 1:30 0.0 l/m2 in 1 Std. -
Ortszeit Stärke Spitze Richtung
km/h Bft. km/h Grad Sektor
Sa, 23.06. 2:00 4 1 25 180° S
Fr, 22.06. 20:00 20 4 44 310° NW
Fr, 22.06. 14:00 26 4 52 300° NW
Fr, 22.06. 8:00 14 3 25 320° NW
Fr, 22.06. 2:00 17 3 43 340° N
Do, 21.06. 20:00 24 4 48 360° N
Do, 21.06. 14:00 24 4 46 300° NW
Do, 21.06. 8:00 6 1 13 160° S
Ortszeit Stärke Spitze Richtung
km/h Bft. km/h Grad Sektor
Sa, 23.06. 4:30 4 1 7 120° SO
Sa, 23.06. 4:20 11 2 - 100° O
Sa, 23.06. 4:10 4 1 - 140° SO
Sa, 23.06. 4:00 4 1 7 180° S
Sa, 23.06. 3:50 4 1 - 180° S
Sa, 23.06. 3:40 4 1 - 150° SO
Sa, 23.06. 3:30 4 1 7 120° SO
Sa, 23.06. 3:00 4 1 4 120° SO
Sa, 23.06. 2:30 4 1 4 120° SO
Sa, 23.06. 2:00 4 1 7 180° S
Sa, 23.06. 1:30 4 1 4 110° O
Ortszeit Untergrenze Bedeckung Gattung
total tief tief mittel hoch
Sa, 23.06. 2:00 - 0/8 0/8 - - -
Fr, 22.06. 20:00 1500 m 8/8 3/8 - - -
Fr, 22.06. 14:00 1470 m 7/8 7/8 - - -
Fr, 22.06. 8:00 - 0/8 0/8 - - -
Fr, 22.06. 2:00 4200 m 2/8 1/8 - - -
Do, 21.06. 20:00 1800 m 6/8 5/8 - - -
Do, 21.06. 14:00 1500 m 5/8 5/8 - - -
Do, 21.06. 8:00 2100 m 6/8 6/8 - - -
Ortszeit Bedeckungsgrad in Achtel und Wolkenuntergrenze
Sa, 23.06. 4:30 3(2100m)
Sa, 23.06. 4:20 -
Sa, 23.06. 4:10 9 9 9
Sa, 23.06. 4:00 3(2100m)
Sa, 23.06. 3:50 3(2100m)
Sa, 23.06. 3:40 9 9 9
Sa, 23.06. 3:30 1(2100m)
Sa, 23.06. 3:00 keine Wolken
Sa, 23.06. 2:30 keine Wolken
Sa, 23.06. 2:00 keine Wolken
Sa, 23.06. 1:30 keine Wolken
Ortszeit Luftdruck NN (hPa) Tendenz (hPa in 3 Std.)
Sa, 23.06. 2:00 1028 + 0,1
Fr, 22.06. 20:00 1024 + 0,3
Fr, 22.06. 14:00 1023 0,0
Fr, 22.06. 8:00 1024 + 0,4
Fr, 22.06. 2:00 1022 + 2,3
Do, 21.06. 20:00 1015 + 0,9
Do, 21.06. 14:00 1012 - 1,0
Do, 21.06. 8:00 1016 - 0,3
Ortszeit Luftdruck NN (hPa) Tendenz (hPa in 3 Std.)
Sa, 23.06. 4:30 1027 - 0,6
Sa, 23.06. 4:20 1025 keine Meldung
Sa, 23.06. 4:10 1027 keine Meldung
Sa, 23.06. 4:00 1027 - 0,5
Sa, 23.06. 3:50 1027 keine Meldung
Sa, 23.06. 3:40 1028 keine Meldung
Sa, 23.06. 3:30 1028 - 0,4
Sa, 23.06. 3:00 1028 - 0,2
Sa, 23.06. 2:30 1027 - 0,1
Sa, 23.06. 2:00 1028 + 0,1
Sa, 23.06. 1:30 1027 + 0,3
Ortszeit Schneehöhe (cm)
Sa, 23.06. 2:00 -
Fr, 22.06. 20:00 -
Fr, 22.06. 14:00 -
Fr, 22.06. 8:00 -
Fr, 22.06. 2:00 -
Do, 21.06. 20:00 -
Do, 21.06. 14:00 -
Do, 21.06. 8:00 -
Ortszeit Schneehöhe (cm)
Sa, 23.06. 4:30 -
Sa, 23.06. 4:20 -
Sa, 23.06. 4:10 -
Sa, 23.06. 4:00 -
Sa, 23.06. 3:50 -
Sa, 23.06. 3:40 -
Sa, 23.06. 3:30 -
Sa, 23.06. 3:00 -
Sa, 23.06. 2:30 -
Sa, 23.06. 2:00 -
Sa, 23.06. 1:30 -
Link zu dieser Seite / Seite empfehlen

Das Wetter in ...